createdAt,value
2017-04-28T00:00:11.668Z,4.30
2017-04-28T00:02:39.315Z,4.40
2017-04-28T00:05:07.259Z,4.50
2017-04-28T00:07:34.911Z,4.50
2017-04-28T00:10:02.557Z,4.50
2017-04-28T00:12:30.231Z,4.50
2017-04-28T00:14:57.890Z,4.50
2017-04-28T00:17:26.332Z,4.50
2017-04-28T00:19:55.499Z,4.40
2017-04-28T00:22:23.563Z,4.40
2017-04-28T00:24:51.212Z,4.40
2017-04-28T00:27:19.630Z,4.20
2017-04-28T00:29:47.301Z,4.20
2017-04-28T00:32:14.954Z,4.20
2017-04-28T00:34:43.456Z,4.10
2017-04-28T00:37:11.865Z,4.20
2017-04-28T00:39:39.825Z,4.10
2017-04-28T00:42:07.465Z,4.10
2017-04-28T00:44:35.110Z,4.10
2017-04-28T00:47:02.777Z,4.10
2017-04-28T00:49:30.432Z,4.10
2017-04-28T00:51:58.388Z,4.10
2017-04-28T00:54:26.053Z,4.00
2017-04-28T00:56:53.790Z,4.00
2017-04-28T00:59:21.480Z,4.00
2017-04-28T01:01:49.116Z,4.00
2017-04-28T01:04:17.559Z,4.10
2017-04-28T01:06:45.210Z,4.00
2017-04-28T01:09:13.923Z,3.90
2017-04-28T01:11:41.563Z,3.90
2017-04-28T01:14:09.988Z,3.90
2017-04-28T01:16:39.173Z,3.90
2017-04-28T01:19:07.601Z,3.90
2017-04-28T01:21:35.597Z,3.80
2017-04-28T01:24:03.259Z,3.90
2017-04-28T01:26:31.670Z,3.90
2017-04-28T01:28:59.349Z,3.90
2017-04-28T01:31:27.114Z,3.90
2017-04-28T01:33:55.846Z,3.90
2017-04-28T01:36:23.536Z,3.90
2017-04-28T01:38:51.956Z,3.90
2017-04-28T01:41:19.638Z,3.80
2017-04-28T01:43:47.286Z,3.90
2017-04-28T01:46:15.299Z,3.90
2017-04-28T01:48:42.941Z,4.00
2017-04-28T01:51:10.599Z,4.00
2017-04-28T01:53:38.289Z,3.90
2017-04-28T01:56:06.702Z,3.80
2017-04-28T01:58:35.402Z,3.90
2017-04-28T02:01:03.053Z,3.90
2017-04-28T02:03:30.705Z,4.00
2017-04-28T02:05:58.374Z,4.00
2017-04-28T02:08:26.027Z,4.00
2017-04-28T02:10:54.753Z,4.00
2017-04-28T02:13:22.396Z,3.90
2017-04-28T02:15:50.042Z,4.00
2017-04-28T02:18:18.508Z,4.00
2017-04-28T02:20:46.940Z,4.10
2017-04-28T02:23:14.611Z,4.00
2017-04-28T02:25:42.267Z,4.00
2017-04-28T02:28:10.210Z,4.00
2017-04-28T02:30:38.629Z,4.10
2017-04-28T02:33:07.075Z,4.10
2017-04-28T02:35:34.997Z,4.00
2017-04-28T02:38:03.406Z,4.10
2017-04-28T02:40:32.272Z,4.20
2017-04-28T02:43:02.064Z,4.10
2017-04-28T02:45:30.472Z,4.00
2017-04-28T02:47:58.124Z,4.00
2017-04-28T02:50:25.789Z,4.10
2017-04-28T02:52:53.437Z,4.10
2017-04-28T02:55:21.109Z,4.10
2017-04-28T02:57:49.533Z,4.10
2017-04-28T03:00:17.220Z,4.10
2017-04-28T03:02:44.880Z,4.10
2017-04-28T03:05:13.647Z,4.00
2017-04-28T03:07:41.308Z,4.00
2017-04-28T03:10:09.725Z,4.00
2017-04-28T03:12:38.181Z,4.00
2017-04-28T03:15:05.834Z,3.90
2017-04-28T03:17:34.613Z,3.80
2017-04-28T03:20:03.037Z,3.80
2017-04-28T03:22:30.689Z,3.70
2017-04-28T03:24:58.389Z,3.70
2017-04-28T03:27:26.039Z,3.60
2017-04-28T03:29:53.717Z,3.60
2017-04-28T03:32:22.145Z,3.40
2017-04-28T03:34:49.849Z,3.30
2017-04-28T03:37:17.513Z,3.40
2017-04-28T03:39:45.188Z,3.30
2017-04-28T03:42:14.341Z,3.20
2017-04-28T03:44:42.311Z,3.20
2017-04-28T03:47:10.718Z,3.20
2017-04-28T03:49:39.130Z,3.10
2017-04-28T03:52:06.818Z,3.00
2017-04-28T03:54:34.470Z,3.00
2017-04-28T03:57:03.196Z,2.90
2017-04-28T03:59:30.834Z,2.80
2017-04-28T04:01:58.484Z,2.70
2017-04-28T04:04:26.158Z,2.70
2017-04-28T04:06:53.818Z,2.60
2017-04-28T04:09:22.568Z,2.60
2017-04-28T04:11:50.217Z,2.50
2017-04-28T04:14:18.884Z,2.60
2017-04-28T04:16:46.659Z,2.60
2017-04-28T04:19:14.306Z,2.60
2017-04-28T04:21:41.992Z,2.50
2017-04-28T04:24:09.640Z,2.50
2017-04-28T04:26:38.073Z,2.40
2017-04-28T04:29:06.529Z,2.50
2017-04-28T04:31:34.485Z,2.40
2017-04-28T04:34:02.130Z,2.50
2017-04-28T04:36:29.782Z,2.50
2017-04-28T04:38:57.444Z,2.60
2017-04-28T04:41:25.856Z,2.70
2017-04-28T04:43:53.535Z,2.60
2017-04-28T04:46:21.957Z,2.90
2017-04-28T04:48:50.083Z,2.90
2017-04-28T04:51:17.787Z,3.00
2017-04-28T04:53:45.436Z,3.10
2017-04-28T04:56:14.912Z,3.10
2017-04-28T04:58:42.561Z,3.10
2017-04-28T05:01:10.965Z,3.30
2017-04-28T05:03:39.685Z,3.50
2017-04-28T05:06:07.333Z,3.40
2017-04-28T05:08:34.971Z,3.60
2017-04-28T05:11:03.778Z,3.70
2017-04-28T05:13:31.423Z,3.70
2017-04-28T05:15:59.070Z,3.80
2017-04-28T05:18:27.105Z,3.80
2017-04-28T05:20:54.748Z,3.80
2017-04-28T05:23:22.394Z,3.90
2017-04-28T05:25:50.349Z,3.90
2017-04-28T05:28:18.010Z,4.00
2017-04-28T05:30:45.657Z,4.10
2017-04-28T05:33:14.409Z,4.20
2017-04-28T05:35:42.049Z,4.20
2017-04-28T05:38:10.466Z,4.60
2017-04-28T05:40:39.198Z,4.70
2017-04-28T05:43:06.850Z,4.70
2017-04-28T05:45:34.497Z,4.80
2017-04-28T05:48:02.485Z,4.90
2017-04-28T05:50:30.900Z,5.20
2017-04-28T05:52:59.304Z,5.30
2017-04-28T05:55:27.340Z,5.30
2017-04-28T05:57:55.752Z,5.40
2017-04-28T06:00:24.173Z,5.60
2017-04-28T06:02:52.119Z,5.50
2017-04-28T06:05:20.566Z,5.70
2017-04-28T06:07:48.985Z,5.90
2017-04-28T06:10:17.722Z,5.90
2017-04-28T06:12:46.137Z,5.90
2017-04-28T06:15:13.795Z,5.90
2017-04-28T06:17:41.776Z,6.00
2017-04-28T06:20:09.423Z,6.00
2017-04-28T06:22:37.075Z,6.00
2017-04-28T06:25:05.028Z,6.00
2017-04-28T06:27:33.440Z,6.40
2017-04-28T06:30:01.859Z,6.30
2017-04-28T06:32:29.784Z,6.30
2017-04-28T06:34:57.433Z,6.40
2017-04-28T06:37:25.088Z,6.60
2017-04-28T06:39:53.876Z,6.70
2017-04-28T06:42:21.528Z,6.60
2017-04-28T06:44:49.164Z,6.80
2017-04-28T06:47:17.229Z,6.90
2017-04-28T06:49:44.880Z,6.90
2017-04-28T06:52:12.517Z,6.90
2017-04-28T06:54:40.470Z,6.90
2017-04-28T06:57:08.124Z,7.10
2017-04-28T06:59:35.800Z,7.30
2017-04-28T07:02:03.825Z,7.30
2017-04-28T07:04:31.458Z,7.30
2017-04-28T07:06:59.104Z,7.40
2017-04-28T07:09:27.085Z,7.40
2017-04-28T07:11:54.724Z,7.40
2017-04-28T07:14:22.375Z,7.50
2017-04-28T07:16:50.312Z,7.50
2017-04-28T07:19:17.978Z,7.70
2017-04-28T07:21:45.644Z,7.80
2017-04-28T07:24:14.385Z,7.90
2017-04-28T07:26:42.028Z,7.90
2017-04-28T07:29:09.725Z,8.00
2017-04-28T07:31:38.464Z,8.00
2017-04-28T07:34:06.126Z,7.90
2017-04-28T07:36:33.787Z,8.00
2017-04-28T07:39:01.729Z,8.10
2017-04-28T07:41:29.383Z,8.30
2017-04-28T07:43:57.796Z,8.30
2017-04-28T07:46:25.772Z,8.20
2017-04-28T07:48:53.444Z,8.30
2017-04-28T07:51:21.083Z,8.30
2017-04-28T07:53:49.009Z,8.30
2017-04-28T07:56:16.657Z,8.30
2017-04-28T07:58:44.308Z,8.40
2017-04-28T08:01:12.249Z,8.50
2017-04-28T08:03:39.884Z,8.50
2017-04-28T08:06:07.545Z,8.50
2017-04-28T08:08:35.612Z,8.50
2017-04-28T08:11:03.272Z,8.60
2017-04-28T08:13:30.912Z,8.60
2017-04-28T08:15:59.665Z,8.90
2017-04-28T08:18:27.314Z,8.80
2017-04-28T08:20:54.968Z,9.00
2017-04-28T08:23:23.020Z,9.00
2017-04-28T08:25:50.660Z,9.10
2017-04-28T08:28:18.309Z,9.10
2017-04-28T08:30:47.076Z,9.30
2017-04-28T08:33:14.720Z,9.20
2017-04-28T08:35:42.356Z,9.10
2017-04-28T08:38:10.335Z,8.90
2017-04-28T08:40:37.980Z,8.80
2017-04-28T08:43:05.633Z,8.70
2017-04-28T08:45:33.689Z,8.70
2017-04-28T08:48:02.106Z,8.90
2017-04-28T08:50:29.759Z,8.80
2017-04-28T08:52:57.734Z,9.00
2017-04-28T08:55:25.385Z,9.00
2017-04-28T08:57:53.031Z,9.20
2017-04-28T09:00:21.005Z,9.20
2017-04-28T09:02:48.653Z,9.00
2017-04-28T09:05:16.296Z,8.80
2017-04-28T09:07:44.237Z,8.60
2017-04-28T09:10:12.645Z,8.50
2017-04-28T09:12:41.063Z,8.50
2017-04-28T09:15:09.129Z,8.50
2017-04-28T09:17:36.771Z,8.70
2017-04-28T09:20:04.416Z,8.50
2017-04-28T09:22:32.367Z,8.60
2017-04-28T09:25:00.777Z,9.00
2017-04-28T09:27:29.191Z,9.10
2017-04-28T09:29:57.148Z,9.10
2017-04-28T09:32:25.564Z,9.70
2017-04-28T09:34:53.992Z,9.90
2017-04-28T09:37:22.704Z,9.90
2017-04-28T09:39:51.119Z,9.60
2017-04-28T09:42:18.763Z,9.60
2017-04-28T09:44:48.157Z,9.80
2017-04-28T09:47:15.806Z,9.80
2017-04-28T09:49:43.453Z,9.90
2017-04-28T09:52:12.233Z,10.40
2017-04-28T09:54:39.881Z,10.30
2017-04-28T09:57:07.553Z,10.30
2017-04-28T09:59:36.285Z,10.40
2017-04-28T10:02:03.940Z,10.40
2017-04-28T10:04:31.590Z,10.70
2017-04-28T10:06:59.641Z,10.80
2017-04-28T10:09:27.292Z,10.80
2017-04-28T10:11:54.940Z,10.90
2017-04-28T10:14:22.977Z,11.10
2017-04-28T10:16:51.393Z,11.50
2017-04-28T10:19:19.945Z,11.50
2017-04-28T10:21:47.983Z,11.40
2017-04-28T10:24:15.638Z,11.30
2017-04-28T10:26:44.050Z,11.40
2017-04-28T10:29:12.029Z,11.40
2017-04-28T10:31:39.683Z,11.70
2017-04-28T10:34:07.365Z,11.90
2017-04-28T10:36:35.345Z,12.30
2017-04-28T10:39:02.994Z,12.60
2017-04-28T10:41:30.637Z,13.20
2017-04-28T10:43:58.638Z,13.30
2017-04-28T10:46:26.290Z,13.50
2017-04-28T10:48:53.951Z,13.30
2017-04-28T10:51:22.694Z,12.80
2017-04-28T10:53:50.345Z,12.70
2017-04-28T10:56:18.798Z,12.20
2017-04-28T10:58:46.767Z,12.10
2017-04-28T11:01:14.414Z,11.90
2017-04-28T11:03:42.061Z,11.80
2017-04-28T11:06:09.988Z,12.00
2017-04-28T11:08:38.402Z,13.30
2017-04-28T11:11:06.053Z,13.30
2017-04-28T11:13:34.071Z,13.60
2017-04-28T11:16:01.714Z,13.20
2017-04-28T11:18:30.219Z,13.10
2017-04-28T11:20:58.229Z,13.10
2017-04-28T11:23:25.872Z,12.80
2017-04-28T11:25:54.285Z,12.70
2017-04-28T11:28:22.244Z,12.60
2017-04-28T11:30:50.656Z,11.80
2017-04-28T11:33:18.318Z,11.70
2017-04-28T11:35:46.364Z,11.70
2017-04-28T11:38:14.782Z,11.20
2017-04-28T11:40:43.197Z,10.90
2017-04-28T11:43:11.153Z,10.90
2017-04-28T11:45:38.815Z,11.10
2017-04-28T11:48:06.487Z,11.40
2017-04-28T11:50:34.519Z,11.50
2017-04-28T11:53:02.175Z,11.50
2017-04-28T11:55:29.841Z,11.30
2017-04-28T11:57:58.574Z,11.10
2017-04-28T12:00:26.225Z,11.10
2017-04-28T12:02:53.879Z,11.10
2017-04-28T12:05:21.920Z,11.10
2017-04-28T12:07:49.577Z,11.30
2017-04-28T12:10:17.225Z,11.40
2017-04-28T12:12:45.261Z,11.60
2017-04-28T12:15:12.904Z,11.70
2017-04-28T12:17:41.321Z,12.00
2017-04-28T12:20:10.027Z,12.30
2017-04-28T12:22:37.669Z,12.20
2017-04-28T12:25:06.096Z,12.20
2017-04-28T12:27:34.124Z,12.10
2017-04-28T12:30:01.771Z,12.30
2017-04-28T12:32:29.443Z,12.50
2017-04-28T12:34:58.195Z,12.30
2017-04-28T12:37:27.357Z,11.90
2017-04-28T12:39:55.033Z,11.90
2017-04-28T12:42:23.081Z,11.70
2017-04-28T12:44:50.729Z,11.40
2017-04-28T12:47:18.380Z,11.10
2017-04-28T12:49:47.854Z,11.50
2017-04-28T12:52:16.276Z,11.90
2017-04-28T12:54:43.930Z,11.90
2017-04-28T12:57:11.916Z,11.90
2017-04-28T12:59:39.582Z,11.50
2017-04-28T13:02:08.732Z,11.50
2017-04-28T13:04:37.463Z,11.40
2017-04-28T13:07:05.951Z,11.20
2017-04-28T13:09:33.626Z,11.20
2017-04-28T13:12:01.600Z,11.20
2017-04-28T13:14:30.008Z,11.00
2017-04-28T13:16:58.418Z,11.10
2017-04-28T13:19:26.489Z,11.00
2017-04-28T13:21:54.149Z,11.10
2017-04-28T13:24:21.809Z,11.20
2017-04-28T13:26:50.506Z,11.20
2017-04-28T13:29:18.157Z,11.10
2017-04-28T13:31:45.809Z,11.20
2017-04-28T13:34:13.934Z,11.40
2017-04-28T13:36:42.349Z,11.60
2017-04-28T13:39:10.005Z,11.60
2017-04-28T13:41:38.781Z,11.20
2017-04-28T13:44:06.420Z,11.20
2017-04-28T13:46:34.073Z,11.10
2017-04-28T13:49:02.121Z,11.10
2017-04-28T13:51:29.769Z,11.20
2017-04-28T13:53:57.416Z,11.20
2017-04-28T13:56:25.382Z,11.10
2017-04-28T13:58:53.045Z,11.00
2017-04-28T14:01:21.480Z,10.60
2017-04-28T14:03:49.545Z,10.50
2017-04-28T14:06:17.188Z,10.40
2017-04-28T14:08:45.591Z,9.80
2017-04-28T14:11:14.416Z,9.40
2017-04-28T14:13:42.073Z,9.30
2017-04-28T14:16:09.716Z,9.30
2017-04-28T14:18:38.472Z,9.30
2017-04-28T14:21:06.137Z,9.20
2017-04-28T14:23:33.777Z,9.30
2017-04-28T14:26:02.546Z,9.70
2017-04-28T14:28:30.192Z,9.70
2017-04-28T14:30:57.849Z,9.90
2017-04-28T14:33:25.793Z,10.20
2017-04-28T14:35:54.215Z,10.20
2017-04-28T14:38:22.629Z,10.20
2017-04-28T14:40:51.365Z,10.40
2017-04-28T14:43:19.018Z,10.40
2017-04-28T14:45:46.665Z,10.40
2017-04-28T14:48:14.752Z,10.40
2017-04-28T14:50:42.404Z,10.40
2017-04-28T14:53:10.710Z,10.40
2017-04-28T14:55:38.660Z,10.40
2017-04-28T14:58:07.082Z,10.10
2017-04-28T15:00:34.747Z,10.10
2017-04-28T15:03:02.706Z,9.90
2017-04-28T15:05:30.342Z,9.80
2017-04-28T15:07:58.760Z,9.60
2017-04-28T15:10:27.564Z,9.60
2017-04-28T15:12:55.212Z,9.50
2017-04-28T15:15:22.867Z,9.40
2017-04-28T15:17:50.826Z,9.30
2017-04-28T15:20:18.481Z,9.30
2017-04-28T15:22:46.127Z,9.60
2017-04-28T15:25:14.863Z,9.70
2017-04-28T15:27:42.520Z,9.70
2017-04-28T15:30:10.936Z,10.10
2017-04-28T15:32:38.941Z,10.10
2017-04-28T15:35:06.616Z,10.30
2017-04-28T15:37:34.286Z,10.30
2017-04-28T15:40:03.138Z,10.50
2017-04-28T15:42:30.820Z,10.40
2017-04-28T15:44:59.233Z,10.50
2017-04-28T15:47:27.181Z,10.50
2017-04-28T15:49:54.852Z,10.50
2017-04-28T15:52:23.279Z,10.20
2017-04-28T15:54:51.228Z,10.20
2017-04-28T15:57:18.882Z,10.20
2017-04-28T15:59:46.536Z,10.00
2017-04-28T16:02:14.593Z,10.00
2017-04-28T16:04:42.310Z,10.00
2017-04-28T16:07:09.959Z,10.00
2017-04-28T16:09:37.898Z,9.90
2017-04-28T16:12:06.315Z,10.10
2017-04-28T16:14:33.960Z,10.10
2017-04-28T16:17:01.996Z,10.20
2017-04-28T16:19:29.653Z,10.10
2017-04-28T16:21:57.329Z,10.20
2017-04-28T16:24:26.308Z,10.30
2017-04-28T16:26:54.745Z,10.30
2017-04-28T16:29:22.386Z,10.20
2017-04-28T16:31:50.329Z,10.20
2017-04-28T16:34:18.775Z,9.90
2017-04-28T16:36:47.223Z,9.90
2017-04-28T16:39:15.227Z,9.80
2017-04-28T16:41:42.872Z,9.80
2017-04-28T16:44:10.554Z,9.70
2017-04-28T16:46:38.542Z,9.50
2017-04-28T16:49:06.223Z,9.50
2017-04-28T16:51:33.910Z,9.40
2017-04-28T16:54:02.644Z,9.20
2017-04-28T16:56:30.310Z,9.20
2017-04-28T16:58:58.002Z,9.20
2017-04-28T17:01:25.986Z,9.10
2017-04-28T17:03:53.666Z,9.10
2017-04-28T17:06:22.109Z,9.10
2017-04-28T17:08:50.053Z,9.00
2017-04-28T17:11:18.686Z,9.10
2017-04-28T17:13:46.416Z,9.00
2017-04-28T17:16:14.432Z,9.00
2017-04-28T17:18:42.204Z,9.00
2017-04-28T17:21:10.685Z,9.00
2017-04-28T17:23:38.802Z,9.00
2017-04-28T17:26:07.212Z,8.90
2017-04-28T17:28:34.895Z,8.90
2017-04-28T17:31:03.690Z,8.90
2017-04-28T17:33:32.125Z,8.90
2017-04-28T17:36:01.928Z,8.90
2017-04-28T17:38:29.987Z,8.80
2017-04-28T17:40:57.700Z,8.80
2017-04-28T17:43:25.414Z,8.90
2017-04-28T17:45:54.097Z,8.80
2017-04-28T17:48:22.618Z,8.80
2017-04-28T17:50:50.373Z,8.80
2017-04-28T17:53:18.342Z,8.70
2017-04-28T17:55:47.550Z,8.70
2017-04-28T17:58:15.188Z,8.60
2017-04-28T18:00:43.212Z,8.70
2017-04-28T18:03:10.861Z,8.70
2017-04-28T18:05:38.556Z,8.70
2017-04-28T18:08:06.745Z,8.60
2017-04-28T18:10:34.463Z,8.60
2017-04-28T18:13:02.925Z,8.50
2017-04-28T18:15:31.173Z,8.50
2017-04-28T18:17:58.839Z,8.50
2017-04-28T18:20:28.313Z,8.50
2017-04-28T18:22:56.344Z,8.50
2017-04-28T18:25:24.005Z,8.50
2017-04-28T18:27:52.447Z,8.50
2017-04-28T18:30:20.457Z,8.50
2017-04-28T18:32:48.879Z,8.40
2017-04-28T18:35:16.561Z,8.30
2017-04-28T18:37:45.284Z,8.30
2017-04-28T18:40:13.701Z,8.20
2017-04-28T18:42:42.113Z,8.20
2017-04-28T18:45:10.213Z,8.20
2017-04-28T18:47:37.934Z,8.20
2017-04-28T18:50:05.577Z,8.20
2017-04-28T18:52:34.301Z,8.10
2017-04-28T18:55:02.773Z,8.00
2017-04-28T18:57:30.471Z,7.90
2017-04-28T18:59:58.413Z,7.90
2017-04-28T19:02:26.062Z,7.90
2017-04-28T19:04:53.709Z,7.90
2017-04-28T19:07:22.567Z,7.70
2017-04-28T19:09:51.089Z,7.80
2017-04-28T19:12:19.522Z,7.70
2017-04-28T19:14:47.564Z,7.60
2017-04-28T19:17:15.210Z,7.60
2017-04-28T19:19:42.860Z,7.60
2017-04-28T19:22:10.781Z,7.60
2017-04-28T19:24:39.289Z,7.60
2017-04-28T19:27:06.965Z,7.60
2017-04-28T19:29:35.693Z,7.50
2017-04-28T19:32:03.341Z,7.50
2017-04-28T19:34:30.996Z,7.50
2017-04-28T19:36:58.966Z,7.40
2017-04-28T19:39:26.617Z,7.40
2017-04-28T19:41:54.270Z,7.40
2017-04-28T19:44:22.220Z,7.30
2017-04-28T19:46:51.439Z,7.20
2017-04-28T19:49:19.899Z,7.30
2017-04-28T19:51:47.862Z,7.20
2017-04-28T19:54:15.512Z,7.20
2017-04-28T19:56:43.172Z,7.20
2017-04-28T19:59:11.138Z,7.10
2017-04-28T20:01:38.789Z,7.20
2017-04-28T20:04:06.445Z,7.10
2017-04-28T20:06:34.395Z,7.00
2017-04-28T20:09:02.036Z,7.00
2017-04-28T20:11:29.681Z,7.00
2017-04-28T20:13:57.638Z,6.90
2017-04-28T20:16:26.071Z,6.90
2017-04-28T20:18:54.485Z,6.80
2017-04-28T20:21:23.373Z,6.70
2017-04-28T20:23:51.129Z,6.70
2017-04-28T20:26:18.774Z,6.70
2017-04-28T20:28:47.505Z,6.60
2017-04-28T20:31:15.944Z,6.50
2017-04-28T20:33:44.345Z,6.40
2017-04-28T20:36:12.286Z,6.30
2017-04-28T20:38:39.937Z,6.30
2017-04-28T20:41:07.587Z,6.30
2017-04-28T20:43:35.563Z,6.30
2017-04-28T20:46:03.213Z,6.30
2017-04-28T20:48:30.862Z,6.30
2017-04-28T20:50:59.573Z,6.40
2017-04-28T20:53:27.213Z,6.30
2017-04-28T20:55:54.885Z,6.20
2017-04-28T20:58:22.858Z,6.00
2017-04-28T21:00:50.504Z,5.90
2017-04-28T21:03:18.160Z,5.80
2017-04-28T21:05:46.120Z,5.70
2017-04-28T21:08:13.774Z,5.70
2017-04-28T21:10:41.413Z,5.70
2017-04-28T21:13:09.356Z,5.60
2017-04-28T21:15:38.518Z,5.50
2017-04-28T21:18:06.178Z,5.40
2017-04-28T21:20:34.110Z,5.40
2017-04-28T21:23:02.502Z,5.30
2017-04-28T21:25:30.146Z,5.30
2017-04-28T21:27:58.313Z,5.30
2017-04-28T21:30:25.972Z,5.30
2017-04-28T21:32:53.633Z,5.20
2017-04-28T21:35:22.452Z,5.20
2017-04-28T21:37:50.100Z,5.20
2017-04-28T21:40:17.741Z,5.20
2017-04-28T21:42:45.715Z,5.10
2017-04-28T21:45:13.370Z,5.00
2017-04-28T21:47:41.018Z,5.00
2017-04-28T21:50:09.057Z,4.90
2017-04-28T21:52:36.811Z,4.90
2017-04-28T21:55:04.466Z,4.90
2017-04-28T21:57:32.430Z,4.90
2017-04-28T22:00:00.078Z,4.90
2017-04-28T22:02:27.720Z,4.80
2017-04-28T22:04:56.476Z,4.70
2017-04-28T22:07:24.114Z,4.70
2017-04-28T22:09:52.554Z,4.70
2017-04-28T22:12:20.545Z,4.60
2017-04-28T22:15:03.074Z,4.70
2017-04-28T22:17:31.788Z,4.50
2017-04-28T22:19:59.433Z,4.50
2017-04-28T22:22:27.853Z,4.50
2017-04-28T22:24:56.567Z,4.50
2017-04-28T22:27:24.210Z,4.40
2017-04-28T22:29:51.869Z,4.50
2017-04-28T22:32:19.836Z,4.50
2017-04-28T22:34:47.487Z,4.50
2017-04-28T22:37:15.903Z,4.30
2017-04-28T22:39:43.919Z,4.30
2017-04-28T22:42:12.328Z,4.30
2017-04-28T22:44:39.978Z,4.20
2017-04-28T22:47:08.742Z,4.20
2017-04-28T22:49:37.179Z,4.10
2017-04-28T22:52:04.884Z,4.00
2017-04-28T22:54:32.957Z,4.00
2017-04-28T22:57:00.619Z,4.00
2017-04-28T22:59:29.770Z,3.90
2017-04-28T23:01:57.738Z,3.90
2017-04-28T23:04:25.387Z,3.90
2017-04-28T23:06:53.034Z,3.90
2017-04-28T23:09:21.001Z,3.90
2017-04-28T23:11:48.652Z,3.90
2017-04-28T23:14:17.072Z,3.90
2017-04-28T23:16:45.865Z,3.90
2017-04-28T23:19:13.509Z,3.90
2017-04-28T23:21:41.932Z,3.90
2017-04-28T23:24:10.660Z,4.00
2017-04-28T23:26:38.309Z,3.90
2017-04-28T23:29:05.965Z,3.90
2017-04-28T23:31:34.004Z,3.90
2017-04-28T23:34:01.651Z,3.80
2017-04-28T23:36:29.296Z,3.90
2017-04-28T23:38:58.067Z,3.90
2017-04-28T23:41:26.483Z,3.70
2017-04-28T23:43:54.934Z,3.70
2017-04-28T23:46:23.761Z,3.60
2017-04-28T23:48:51.411Z,3.60
2017-04-28T23:51:19.051Z,3.60
2017-04-28T23:53:47.023Z,3.50
2017-04-28T23:56:14.672Z,3.40
2017-04-28T23:58:42.332Z,3.40
